createdAt,value
2017-11-26T00:02:06.066Z,91.04
2017-11-26T00:04:32.193Z,91.40
2017-11-26T00:06:58.374Z,91.13
2017-11-26T00:09:24.495Z,91.35
2017-11-26T00:11:50.609Z,91.37
2017-11-26T00:14:16.730Z,91.11
2017-11-26T00:16:42.869Z,91.54
2017-11-26T00:19:08.978Z,91.26
2017-11-26T00:21:35.102Z,90.31
2017-11-26T00:24:01.285Z,91.19
2017-11-26T00:26:27.491Z,91.23
2017-11-26T00:28:53.567Z,91.24
2017-11-26T00:31:19.802Z,90.65
2017-11-26T00:33:45.946Z,90.82
2017-11-26T00:36:12.061Z,90.74
2017-11-26T00:38:38.174Z,91.14
2017-11-26T00:41:04.297Z,91.10
2017-11-26T00:43:30.439Z,91.01
2017-11-26T00:45:56.598Z,90.66
2017-11-26T00:48:22.709Z,90.58
2017-11-26T00:50:48.780Z,89.57
2017-11-26T00:53:14.874Z,88.89
2017-11-26T00:55:59.360Z,88.78
2017-11-26T00:58:25.453Z,89.15
2017-11-26T01:00:51.579Z,89.46
2017-11-26T01:03:17.685Z,89.08
2017-11-26T01:05:43.831Z,89.02
2017-11-26T01:08:09.966Z,90.24
2017-11-26T01:10:36.127Z,91.22
2017-11-26T01:13:02.366Z,91.62
2017-11-26T01:15:28.470Z,92.03
2017-11-26T01:17:54.581Z,91.10
2017-11-26T01:20:20.725Z,90.74
2017-11-26T01:22:46.858Z,91.18
2017-11-26T01:25:12.992Z,91.78
2017-11-26T01:27:39.109Z,91.64
2017-11-26T01:30:05.297Z,90.96
2017-11-26T01:32:31.417Z,90.56
2017-11-26T01:34:57.531Z,90.12
2017-11-26T01:37:23.762Z,89.35
2017-11-26T01:39:49.926Z,89.95
2017-11-26T01:42:16.027Z,89.32
2017-11-26T01:44:42.169Z,88.77
2017-11-26T01:47:08.350Z,88.06
2017-11-26T01:49:34.485Z,88.32
2017-11-26T01:52:00.569Z,88.54
2017-11-26T01:54:26.693Z,88.18
2017-11-26T01:56:52.826Z,87.95
2017-11-26T01:59:18.929Z,88.64
2017-11-26T02:01:45.149Z,87.40
2017-11-26T02:04:11.209Z,87.75
2017-11-26T02:06:37.346Z,87.80
2017-11-26T02:09:03.485Z,87.71
2017-11-26T02:11:29.678Z,87.51
2017-11-26T02:13:55.885Z,87.51
2017-11-26T02:16:22.001Z,88.28
2017-11-26T02:18:48.141Z,89.73
2017-11-26T02:21:14.204Z,89.32
2017-11-26T02:23:40.278Z,87.47
2017-11-26T02:26:06.482Z,88.65
2017-11-26T02:28:32.567Z,87.47
2017-11-26T02:30:58.694Z,86.12
2017-11-26T02:33:36.899Z,85.48
2017-11-26T02:36:20.968Z,87.62
2017-11-26T02:38:47.075Z,88.45
2017-11-26T02:41:13.203Z,87.78
2017-11-26T02:43:39.303Z,87.88
2017-11-26T02:46:05.365Z,87.57
2017-11-26T02:48:31.533Z,87.52
2017-11-26T02:50:57.628Z,88.18
2017-11-26T02:53:23.723Z,88.39
2017-11-26T02:55:49.817Z,88.32
2017-11-26T02:58:15.962Z,88.66
2017-11-26T03:00:42.093Z,86.63
2017-11-26T03:03:08.289Z,87.14
2017-11-26T03:05:34.443Z,87.55
2017-11-26T03:08:00.549Z,87.55
2017-11-26T03:10:26.661Z,86.23
2017-11-26T03:12:52.821Z,85.67
2017-11-26T03:15:18.982Z,84.44
2017-11-26T03:17:45.139Z,84.87
2017-11-26T03:20:11.259Z,85.20
2017-11-26T03:22:37.370Z,84.93
2017-11-26T03:25:03.901Z,85.93
2017-11-26T03:27:30.061Z,85.82
2017-11-26T03:29:56.230Z,86.04
2017-11-26T03:32:22.410Z,86.42
2017-11-26T03:34:48.550Z,87.50
2017-11-26T03:37:14.678Z,87.21
2017-11-26T03:39:40.814Z,87.32
2017-11-26T03:42:06.954Z,86.31
2017-11-26T03:44:33.029Z,86.50
2017-11-26T03:46:59.145Z,86.70
2017-11-26T03:49:25.235Z,86.67
2017-11-26T03:51:51.306Z,86.92
2017-11-26T03:54:17.462Z,87.19
2017-11-26T03:56:43.601Z,87.48
2017-11-26T03:59:09.708Z,87.47
2017-11-26T04:01:35.814Z,87.56
2017-11-26T04:04:02.106Z,87.72
2017-11-26T04:06:28.185Z,87.71
2017-11-26T04:08:54.316Z,87.92
2017-11-26T04:11:20.443Z,87.76
2017-11-26T04:13:46.535Z,87.71
2017-11-26T04:16:12.622Z,87.77
2017-11-26T04:18:38.737Z,87.66
2017-11-26T04:21:04.902Z,88.12
2017-11-26T04:23:31.010Z,88.06
2017-11-26T04:25:57.087Z,87.91
2017-11-26T04:28:23.204Z,88.18
2017-11-26T04:30:49.291Z,88.18
2017-11-26T04:33:15.401Z,87.79
2017-11-26T04:35:41.541Z,88.25
2017-11-26T04:38:07.722Z,88.39
2017-11-26T04:40:33.861Z,87.79
2017-11-26T04:42:59.970Z,87.73
2017-11-26T04:45:26.179Z,88.41
2017-11-26T04:47:52.319Z,88.16
2017-11-26T04:50:18.460Z,88.38
2017-11-26T04:52:44.573Z,88.16
2017-11-26T04:55:10.784Z,88.89
2017-11-26T04:57:36.924Z,88.72
2017-11-26T05:00:03.097Z,89.95
2017-11-26T05:02:29.218Z,87.95
2017-11-26T05:04:55.263Z,87.43
2017-11-26T05:07:21.405Z,87.25
2017-11-26T05:09:47.541Z,86.40
2017-11-26T05:12:13.681Z,87.07
2017-11-26T05:14:39.797Z,87.13
2017-11-26T05:17:05.906Z,86.51
2017-11-26T05:19:32.080Z,86.77
2017-11-26T05:21:58.204Z,86.30
2017-11-26T05:24:24.378Z,86.82
2017-11-26T05:26:50.559Z,85.26
2017-11-26T05:29:16.685Z,85.96
2017-11-26T05:31:42.882Z,85.74
2017-11-26T05:34:08.939Z,84.21
2017-11-26T05:36:35.094Z,84.38
2017-11-26T05:39:01.212Z,83.28
2017-11-26T05:41:27.301Z,83.32
2017-11-26T05:43:53.416Z,83.51
2017-11-26T05:46:19.527Z,83.56
2017-11-26T05:48:45.687Z,83.46
2017-11-26T05:51:11.843Z,82.95
2017-11-26T05:53:38.018Z,82.90
2017-11-26T05:56:04.220Z,83.68
2017-11-26T05:58:30.339Z,83.43
2017-11-26T06:00:56.504Z,83.36
2017-11-26T06:03:22.621Z,83.79
2017-11-26T06:05:48.785Z,83.62
2017-11-26T06:08:14.885Z,83.69
2017-11-26T06:10:41.050Z,83.65
2017-11-26T06:13:07.238Z,84.04
2017-11-26T06:15:33.337Z,84.04
2017-11-26T06:17:59.456Z,84.33
2017-11-26T06:20:25.555Z,84.34
2017-11-26T06:22:51.726Z,83.74
2017-11-26T06:25:17.858Z,83.87
2017-11-26T06:27:43.984Z,83.33
2017-11-26T06:30:10.089Z,83.07
2017-11-26T06:32:36.220Z,83.90
2017-11-26T06:35:02.444Z,84.06
2017-11-26T06:37:28.598Z,84.05
2017-11-26T06:39:54.632Z,84.15
2017-11-26T06:42:20.752Z,83.31
2017-11-26T06:44:46.866Z,84.09
2017-11-26T06:47:13.013Z,83.73
2017-11-26T06:49:39.149Z,84.24
2017-11-26T06:52:05.309Z,84.22
2017-11-26T06:54:31.484Z,84.58
2017-11-26T06:56:57.594Z,84.51
2017-11-26T06:59:23.752Z,85.05
2017-11-26T07:01:49.932Z,84.76
2017-11-26T07:04:16.037Z,84.95
2017-11-26T07:06:42.274Z,85.46
2017-11-26T07:09:08.378Z,85.78
2017-11-26T07:11:34.461Z,86.39
2017-11-26T07:14:00.598Z,87.00
2017-11-26T07:16:26.773Z,86.93
2017-11-26T07:18:52.885Z,86.31
2017-11-26T07:21:19.002Z,86.08
2017-11-26T07:23:45.179Z,85.99
2017-11-26T07:26:11.297Z,85.83
2017-11-26T07:28:37.409Z,85.56
2017-11-26T07:31:03.529Z,85.75
2017-11-26T07:33:29.642Z,85.43
2017-11-26T07:35:55.908Z,85.70
2017-11-26T07:38:22.037Z,85.76
2017-11-26T07:40:48.165Z,85.71
2017-11-26T07:43:14.363Z,85.99
2017-11-26T07:45:40.469Z,86.37
2017-11-26T07:48:06.593Z,86.67
2017-11-26T07:50:32.725Z,86.95
2017-11-26T07:52:58.838Z,87.43
2017-11-26T07:55:25.051Z,88.91
2017-11-26T07:57:51.190Z,89.77
2017-11-26T08:00:17.322Z,90.13
2017-11-26T08:02:43.675Z,90.00
2017-11-26T08:05:09.839Z,90.09
2017-11-26T08:07:35.983Z,89.68
2017-11-26T08:10:02.142Z,89.82
2017-11-26T08:12:28.246Z,89.23
2017-11-26T08:14:54.402Z,89.46
2017-11-26T08:17:20.573Z,89.86
2017-11-26T08:19:46.649Z,89.93
2017-11-26T08:22:12.783Z,89.39
2017-11-26T08:24:38.895Z,88.95
2017-11-26T08:27:05.090Z,88.37
2017-11-26T08:29:31.166Z,88.97
2017-11-26T08:31:57.230Z,88.21
2017-11-26T08:34:23.397Z,88.16
2017-11-26T08:36:49.519Z,88.39
2017-11-26T08:39:15.700Z,87.75
2017-11-26T08:41:41.853Z,88.09
2017-11-26T08:44:08.072Z,88.90
2017-11-26T08:46:34.267Z,89.40
2017-11-26T08:49:00.441Z,88.86
2017-11-26T08:51:26.749Z,89.71
2017-11-26T08:53:52.992Z,89.54
2017-11-26T08:56:19.183Z,89.81
2017-11-26T08:58:45.318Z,91.39
2017-11-26T09:01:11.448Z,89.93
2017-11-26T09:03:37.616Z,89.72
2017-11-26T09:06:03.778Z,89.38
2017-11-26T09:08:29.918Z,89.97
2017-11-26T09:10:56.061Z,88.90
2017-11-26T09:13:22.404Z,89.30
2017-11-26T09:15:48.537Z,89.04
2017-11-26T09:18:14.691Z,89.06
2017-11-26T09:20:40.855Z,89.00
2017-11-26T09:23:07.083Z,89.19
2017-11-26T09:25:33.214Z,89.22
2017-11-26T09:27:59.376Z,88.67
2017-11-26T09:30:25.576Z,88.72
2017-11-26T09:32:51.787Z,88.99
2017-11-26T09:35:17.946Z,89.08
2017-11-26T09:37:44.068Z,89.25
2017-11-26T09:40:10.131Z,89.39
2017-11-26T09:42:36.345Z,89.37
2017-11-26T09:45:02.518Z,89.32
2017-11-26T09:47:28.652Z,89.32
2017-11-26T09:49:54.783Z,89.04
2017-11-26T09:52:20.899Z,89.14
2017-11-26T09:54:47.082Z,88.68
2017-11-26T09:57:13.181Z,88.51
2017-11-26T09:59:39.326Z,88.39
2017-11-26T10:02:05.433Z,87.94
2017-11-26T10:04:31.578Z,87.78
2017-11-26T10:06:57.659Z,87.07
2017-11-26T10:09:24.172Z,87.44
2017-11-26T10:11:50.293Z,86.82
2017-11-26T10:14:16.409Z,86.36
2017-11-26T10:16:42.560Z,86.42
2017-11-26T10:19:08.694Z,85.69
2017-11-26T10:21:34.845Z,85.33
2017-11-26T10:24:00.962Z,85.50
2017-11-26T10:26:27.114Z,85.91
2017-11-26T10:28:53.322Z,85.28
2017-11-26T10:31:19.437Z,84.83
2017-11-26T10:33:45.561Z,84.46
2017-11-26T10:36:12.770Z,84.91
2017-11-26T10:38:39.976Z,83.81
2017-11-26T10:41:06.075Z,83.78
2017-11-26T10:43:32.191Z,83.82
2017-11-26T10:46:00.003Z,83.58
2017-11-26T10:48:26.163Z,84.01
2017-11-26T10:50:52.261Z,83.44
2017-11-26T10:53:18.422Z,83.77
2017-11-26T10:55:45.062Z,83.60
2017-11-26T10:58:11.146Z,83.12
2017-11-26T11:00:37.406Z,82.95
2017-11-26T11:03:03.509Z,83.52
2017-11-26T11:05:29.582Z,83.17
2017-11-26T11:07:55.731Z,82.71
2017-11-26T11:10:21.799Z,83.21
2017-11-26T11:12:47.961Z,82.83
2017-11-26T11:15:14.117Z,82.97
2017-11-26T11:17:51.575Z,82.16
2017-11-26T11:20:21.156Z,82.48
2017-11-26T11:22:47.319Z,82.93
2017-11-26T11:25:13.482Z,82.24
2017-11-26T11:27:39.788Z,83.46
2017-11-26T11:30:05.856Z,83.14
2017-11-26T11:32:31.992Z,81.43
2017-11-26T11:34:58.055Z,82.02
2017-11-26T11:37:24.299Z,81.62
2017-11-26T11:39:50.411Z,82.06
2017-11-26T11:42:16.571Z,81.88
2017-11-26T11:44:42.761Z,81.22
2017-11-26T11:47:09.517Z,81.61
2017-11-26T11:49:35.694Z,82.54
2017-11-26T11:52:01.911Z,81.54
2017-11-26T11:54:28.022Z,82.48
2017-11-26T11:56:54.170Z,82.01
2017-11-26T11:59:20.320Z,82.06
2017-11-26T12:01:46.469Z,81.20
2017-11-26T12:04:12.628Z,81.08
2017-11-26T12:06:38.778Z,80.56
2017-11-26T12:09:04.918Z,81.12
2017-11-26T12:11:31.017Z,80.97
2017-11-26T12:13:57.155Z,80.51
2017-11-26T12:16:23.334Z,80.62
2017-11-26T12:18:49.518Z,80.74
2017-11-26T12:21:15.623Z,80.09
2017-11-26T12:23:42.038Z,80.51
2017-11-26T12:26:08.123Z,79.90
2017-11-26T12:28:34.217Z,79.34
2017-11-26T12:31:00.291Z,79.63
2017-11-26T12:33:26.367Z,80.16
2017-11-26T12:35:52.551Z,80.42
2017-11-26T12:38:18.666Z,78.71
2017-11-26T12:40:44.781Z,79.48
2017-11-26T12:43:10.874Z,79.30
2017-11-26T12:45:37.025Z,79.69
2017-11-26T12:48:03.155Z,78.75
2017-11-26T12:50:29.297Z,78.36
2017-11-26T12:52:55.411Z,77.81
2017-11-26T12:55:21.895Z,78.25
2017-11-26T12:57:48.069Z,78.33
2017-11-26T13:00:14.349Z,78.47
2017-11-26T13:02:40.454Z,78.44
2017-11-26T13:05:06.747Z,77.67
2017-11-26T13:07:32.874Z,78.08
2017-11-26T13:09:59.043Z,78.52
2017-11-26T13:12:25.166Z,79.05
2017-11-26T13:14:51.315Z,78.01
2017-11-26T13:17:17.421Z,77.51
2017-11-26T13:19:43.515Z,77.80
2017-11-26T13:22:09.605Z,77.84
2017-11-26T13:24:35.717Z,79.33
2017-11-26T13:27:01.799Z,77.46
2017-11-26T13:29:28.002Z,77.72
2017-11-26T13:31:54.167Z,77.27
2017-11-26T13:34:20.286Z,77.56
2017-11-26T13:36:46.361Z,76.48
2017-11-26T13:39:12.471Z,77.34
2017-11-26T13:41:38.789Z,76.69
2017-11-26T13:44:04.933Z,76.87
2017-11-26T13:46:31.059Z,76.68
2017-11-26T13:48:57.136Z,76.63
2017-11-26T13:51:23.290Z,77.48
2017-11-26T13:53:49.356Z,77.85
2017-11-26T13:56:15.462Z,77.78
2017-11-26T13:58:41.670Z,78.02
2017-11-26T14:01:07.892Z,78.68
2017-11-26T14:03:35.316Z,78.63
2017-11-26T14:06:01.454Z,79.05
2017-11-26T14:08:27.563Z,78.65
2017-11-26T14:10:53.634Z,79.50
2017-11-26T14:13:19.752Z,78.18
2017-11-26T14:15:45.864Z,79.04
2017-11-26T14:18:12.010Z,79.27
2017-11-26T14:20:38.100Z,79.63
2017-11-26T14:23:04.212Z,80.50
2017-11-26T14:25:30.343Z,81.33
2017-11-26T14:27:56.464Z,81.34
2017-11-26T14:30:22.735Z,81.72
2017-11-26T14:32:48.821Z,82.26
2017-11-26T14:35:14.978Z,81.70
2017-11-26T14:37:41.102Z,81.97
2017-11-26T14:40:07.227Z,82.15
2017-11-26T14:42:33.338Z,82.80
2017-11-26T14:44:59.469Z,83.40
2017-11-26T14:47:25.657Z,84.09
2017-11-26T14:49:51.741Z,84.31
2017-11-26T14:52:17.905Z,84.25
2017-11-26T14:54:44.570Z,84.74
2017-11-26T14:57:10.676Z,84.66
2017-11-26T14:59:42.060Z,84.67
2017-11-26T15:02:08.624Z,85.07
2017-11-26T15:04:34.717Z,84.65
2017-11-26T15:07:01.006Z,84.63
2017-11-26T15:09:27.162Z,84.65
2017-11-26T15:11:53.331Z,84.70
2017-11-26T15:14:19.529Z,84.86
2017-11-26T15:16:45.662Z,85.20
2017-11-26T15:19:11.766Z,85.56
2017-11-26T15:21:37.879Z,85.10
2017-11-26T15:24:03.988Z,85.02
2017-11-26T15:26:30.606Z,85.18
2017-11-26T15:28:56.690Z,85.51
2017-11-26T15:31:23.105Z,85.30
2017-11-26T15:33:49.221Z,84.96
2017-11-26T15:36:15.309Z,85.11
2017-11-26T15:38:41.430Z,85.26
2017-11-26T15:41:07.519Z,85.70
2017-11-26T15:43:33.680Z,85.22
2017-11-26T15:45:59.804Z,85.46
2017-11-26T15:48:25.878Z,85.99
2017-11-26T15:50:52.050Z,86.22
2017-11-26T15:53:18.213Z,86.21
2017-11-26T15:55:44.536Z,86.64
2017-11-26T15:58:10.657Z,86.71
2017-11-26T16:00:36.790Z,86.48
2017-11-26T16:03:02.940Z,86.70
2017-11-26T16:05:29.026Z,86.50
2017-11-26T16:07:55.271Z,86.60
2017-11-26T16:10:21.398Z,86.71
2017-11-26T16:12:47.497Z,87.35
2017-11-26T16:15:13.662Z,88.29
2017-11-26T16:17:40.229Z,88.66
2017-11-26T16:20:06.967Z,89.25
2017-11-26T16:22:33.107Z,89.56
2017-11-26T16:24:59.318Z,89.82
2017-11-26T16:27:25.413Z,89.96
2017-11-26T16:29:51.481Z,90.14
2017-11-26T16:32:17.597Z,90.03
2017-11-26T16:34:43.761Z,90.07
2017-11-26T16:37:09.893Z,90.13
2017-11-26T16:39:36.032Z,90.30
2017-11-26T16:42:02.207Z,90.41
2017-11-26T16:44:28.390Z,90.53
2017-11-26T16:46:54.556Z,90.43
2017-11-26T16:49:20.745Z,90.52
2017-11-26T16:51:47.113Z,90.70
2017-11-26T16:54:13.237Z,90.06
2017-11-26T16:56:39.380Z,90.52
2017-11-26T16:59:05.541Z,90.47
2017-11-26T17:01:31.629Z,90.83
2017-11-26T17:03:57.767Z,91.38
2017-11-26T17:06:24.702Z,91.69
2017-11-26T17:08:50.902Z,91.83
2017-11-26T17:11:17.095Z,91.79
2017-11-26T17:13:43.281Z,91.85
2017-11-26T17:16:10.330Z,91.89
2017-11-26T17:18:36.545Z,91.64
2017-11-26T17:21:02.636Z,91.58
2017-11-26T17:23:28.776Z,91.71
2017-11-26T17:25:55.051Z,91.59
2017-11-26T17:28:21.215Z,91.59
2017-11-26T17:30:47.287Z,91.28
2017-11-26T17:33:13.385Z,91.52
2017-11-26T17:35:39.615Z,91.52
2017-11-26T17:38:05.777Z,91.22
2017-11-26T17:40:32.122Z,91.21
2017-11-26T17:42:58.594Z,91.35
2017-11-26T17:45:24.681Z,91.01
2017-11-26T17:47:50.872Z,90.91
2017-11-26T17:50:17.045Z,90.93
2017-11-26T17:52:43.129Z,90.95
2017-11-26T17:55:09.258Z,90.91
2017-11-26T17:57:35.431Z,91.04
2017-11-26T18:00:01.710Z,90.79
2017-11-26T18:02:27.784Z,90.88
2017-11-26T18:04:54.008Z,90.90
2017-11-26T18:07:20.128Z,90.68
2017-11-26T18:09:46.335Z,90.81
2017-11-26T18:12:12.624Z,90.82
2017-11-26T18:14:38.833Z,91.04
2017-11-26T18:17:05.046Z,90.87
2017-11-26T18:19:31.205Z,90.96
2017-11-26T18:21:57.382Z,90.77
2017-11-26T18:24:23.542Z,90.31
2017-11-26T18:26:49.682Z,90.32
2017-11-26T18:29:15.877Z,90.18
2017-11-26T18:31:41.923Z,90.17
2017-11-26T18:34:08.147Z,89.81
2017-11-26T18:36:34.338Z,90.05
2017-11-26T18:39:00.458Z,90.03
2017-11-26T18:41:26.750Z,89.37
2017-11-26T18:43:52.908Z,89.71
2017-11-26T18:46:19.353Z,90.11
2017-11-26T18:48:45.548Z,89.95
2017-11-26T18:51:11.841Z,90.17
2017-11-26T18:53:38.071Z,89.71
2017-11-26T18:56:04.262Z,89.45
2017-11-26T18:58:30.448Z,89.82
2017-11-26T19:00:56.670Z,89.59
2017-11-26T19:03:22.806Z,89.80
2017-11-26T19:05:49.037Z,89.32
2017-11-26T19:08:15.311Z,89.12
2017-11-26T19:10:41.487Z,89.45
2017-11-26T19:13:07.737Z,89.39
2017-11-26T19:15:34.809Z,89.08
2017-11-26T19:18:00.964Z,89.05
2017-11-26T19:20:27.127Z,89.15
2017-11-26T19:22:53.290Z,89.66
2017-11-26T19:25:19.475Z,89.37
2017-11-26T19:27:45.729Z,89.25
2017-11-26T19:30:11.960Z,89.75
2017-11-26T19:32:38.292Z,89.60
2017-11-26T19:35:04.567Z,88.81
2017-11-26T19:37:31.896Z,89.14
2017-11-26T19:39:58.206Z,88.94
2017-11-26T19:42:24.398Z,88.96
2017-11-26T19:44:50.740Z,89.34
2017-11-26T19:47:17.007Z,89.28
2017-11-26T19:49:43.333Z,89.24
2017-11-26T19:52:10.985Z,89.37
2017-11-26T19:54:37.377Z,88.84
2017-11-26T19:57:03.829Z,88.69
2017-11-26T19:59:30.241Z,88.79
2017-11-26T20:01:56.603Z,88.62
2017-11-26T20:04:23.092Z,88.71
2017-11-26T20:06:49.788Z,88.81
2017-11-26T20:09:16.127Z,88.99
2017-11-26T20:11:42.731Z,88.99
2017-11-26T20:14:09.004Z,89.19
2017-11-26T20:16:35.441Z,89.10
2017-11-26T20:19:01.715Z,88.75
2017-11-26T20:21:28.760Z,89.20
2017-11-26T20:23:55.556Z,89.11
2017-11-26T20:26:21.843Z,88.90
2017-11-26T20:28:48.422Z,89.05
2017-11-26T20:31:15.984Z,88.94
2017-11-26T20:33:42.984Z,88.91
2017-11-26T20:36:09.407Z,88.90
2017-11-26T20:38:36.291Z,88.61
2017-11-26T20:41:02.570Z,89.02
2017-11-26T20:43:28.930Z,88.66
2017-11-26T20:45:55.168Z,88.77
2017-11-26T20:48:21.543Z,88.61
2017-11-26T20:50:47.854Z,89.00
2017-11-26T20:53:14.193Z,89.02
2017-11-26T20:55:40.470Z,88.34
2017-11-26T20:58:06.744Z,88.10
2017-11-26T21:00:33.056Z,88.41
2017-11-26T21:03:00.530Z,88.32
2017-11-26T21:05:27.540Z,88.66
2017-11-26T21:07:53.752Z,87.85
2017-11-26T21:10:19.995Z,88.15
2017-11-26T21:12:46.475Z,88.33
2017-11-26T21:15:12.847Z,88.10
2017-11-26T21:17:39.154Z,87.98
2017-11-26T21:20:05.460Z,87.98
2017-11-26T21:22:31.780Z,88.09
2017-11-26T21:24:57.939Z,88.07
2017-11-26T21:27:24.268Z,87.69
2017-11-26T21:29:50.485Z,87.83
2017-11-26T21:32:16.646Z,87.72
2017-11-26T21:34:42.811Z,87.66
2017-11-26T21:37:08.951Z,87.81
2017-11-26T21:39:35.085Z,88.14
2017-11-26T21:42:01.256Z,87.79
2017-11-26T21:44:27.346Z,88.03
2017-11-26T21:46:53.455Z,88.11
2017-11-26T21:49:19.597Z,88.07
2017-11-26T21:51:45.783Z,88.24
2017-11-26T21:54:11.905Z,88.08
2017-11-26T21:56:38.043Z,88.15
2017-11-26T21:59:04.181Z,88.33
2017-11-26T22:01:30.268Z,88.14
2017-11-26T22:03:56.381Z,88.18
2017-11-26T22:06:22.513Z,88.33
2017-11-26T22:08:48.728Z,88.17
2017-11-26T22:11:14.873Z,88.01
2017-11-26T22:13:41.430Z,88.11
2017-11-26T22:16:07.583Z,87.96
2017-11-26T22:18:33.741Z,87.95
2017-11-26T22:20:59.861Z,88.14
2017-11-26T22:23:26.013Z,88.37
2017-11-26T22:25:52.155Z,88.23
2017-11-26T22:28:18.317Z,88.04
2017-11-26T22:30:44.445Z,88.32
2017-11-26T22:33:10.708Z,88.36
2017-11-26T22:35:36.830Z,88.35
2017-11-26T22:38:02.990Z,88.26
2017-11-26T22:40:29.178Z,88.23
2017-11-26T22:42:55.307Z,88.05
2017-11-26T22:45:21.437Z,88.15
2017-11-26T22:47:47.609Z,88.16
2017-11-26T22:50:13.738Z,88.36
2017-11-26T22:52:39.873Z,88.26
2017-11-26T22:55:05.978Z,88.42
2017-11-26T22:57:32.115Z,88.14
2017-11-26T22:59:58.309Z,88.15
2017-11-26T23:02:24.470Z,88.22
2017-11-26T23:04:51.273Z,88.32
2017-11-26T23:07:17.397Z,88.28
2017-11-26T23:09:43.497Z,88.31
2017-11-26T23:12:09.753Z,88.39
2017-11-26T23:14:35.890Z,88.53
2017-11-26T23:17:02.042Z,88.36
2017-11-26T23:19:28.176Z,88.64
2017-11-26T23:21:54.286Z,88.40
2017-11-26T23:24:20.415Z,88.37
2017-11-26T23:26:46.483Z,88.42
2017-11-26T23:29:12.622Z,88.40
2017-11-26T23:31:38.766Z,88.43
2017-11-26T23:34:05.103Z,88.30
2017-11-26T23:36:31.310Z,88.45
2017-11-26T23:38:57.466Z,88.55
2017-11-26T23:41:23.747Z,88.51
2017-11-26T23:43:49.967Z,88.67
2017-11-26T23:46:16.144Z,88.56
2017-11-26T23:48:42.327Z,88.67
2017-11-26T23:51:08.497Z,88.75
2017-11-26T23:53:34.691Z,88.78
2017-11-26T23:56:00.845Z,88.67
2017-11-26T23:58:26.978Z,88.52
